createdAt,value
2023-05-18T00:01:24.232Z,5.53
2023-05-18T00:03:54.313Z,2.87
2023-05-18T00:06:22.576Z,3.85
2023-05-18T00:08:49.788Z,2.55
2023-05-18T00:11:17.749Z,3.00
2023-05-18T00:13:44.970Z,2.40
2023-05-18T00:16:13.727Z,2.85
2023-05-18T00:18:41.594Z,2.72
2023-05-18T00:21:09.141Z,2.42
2023-05-18T00:23:39.504Z,2.42
2023-05-18T00:26:06.907Z,7.40
2023-05-18T00:28:34.076Z,5.53
2023-05-18T00:31:01.356Z,3.25
2023-05-18T00:33:28.814Z,5.93
2023-05-18T00:35:57.417Z,6.20
2023-05-18T00:38:24.848Z,2.67
2023-05-18T00:40:52.227Z,4.10
2023-05-18T00:43:19.326Z,5.53
2023-05-18T00:45:46.539Z,5.30
2023-05-18T00:48:14.022Z,5.22
2023-05-18T00:50:41.340Z,3.80
2023-05-18T00:53:10.647Z,4.10
2023-05-18T00:55:38.382Z,4.82
2023-05-18T00:58:05.773Z,3.17
2023-05-18T01:00:33.987Z,5.53
2023-05-18T01:03:04.452Z,7.70
2023-05-18T01:05:31.907Z,6.32
2023-05-18T01:07:59.383Z,2.95
2023-05-18T01:10:27.013Z,5.10
2023-05-18T01:12:58.896Z,2.62
2023-05-18T01:15:48.570Z,3.58
2023-05-18T01:18:23.520Z,4.80
2023-05-18T01:21:00.334Z,4.37
2023-05-18T01:23:49.214Z,3.65
2023-05-18T01:26:24.885Z,4.93
2023-05-18T01:28:54.316Z,3.17
2023-05-18T01:31:23.345Z,3.80
2023-05-18T01:33:50.604Z,3.10
2023-05-18T01:36:17.828Z,6.70
2023-05-18T01:38:45.862Z,3.17
2023-05-18T01:41:22.719Z,6.20
2023-05-18T01:43:59.018Z,3.85
2023-05-18T01:46:36.875Z,2.58
2023-05-18T01:49:16.967Z,4.10
2023-05-18T01:51:50.086Z,4.30
2023-05-18T01:54:21.365Z,3.30
2023-05-18T01:56:49.316Z,6.82
2023-05-18T01:59:17.445Z,3.30
2023-05-18T02:01:45.305Z,3.08
2023-05-18T02:04:12.803Z,3.97
2023-05-18T02:06:40.031Z,3.62
2023-05-18T02:09:09.058Z,2.47
2023-05-18T02:11:36.452Z,4.87
2023-05-18T02:14:03.553Z,5.78
2023-05-18T02:16:30.653Z,4.03
2023-05-18T02:18:58.255Z,3.03
2023-05-18T02:21:26.290Z,3.28
2023-05-18T02:23:53.437Z,4.22
2023-05-18T02:26:21.134Z,6.12
2023-05-18T02:28:52.557Z,3.35
2023-05-18T02:31:19.664Z,4.72
2023-05-18T02:33:46.787Z,8.02
2023-05-18T02:36:14.796Z,4.20
2023-05-18T02:38:43.458Z,4.82
2023-05-18T02:41:12.150Z,3.70
2023-05-18T02:43:39.622Z,5.93
2023-05-18T02:46:07.604Z,4.20
2023-05-18T02:48:34.913Z,3.08
2023-05-18T02:51:02.291Z,4.82
2023-05-18T02:53:29.555Z,3.62
2023-05-18T02:55:58.108Z,3.80
2023-05-18T02:58:26.877Z,5.20
2023-05-18T03:01:00.305Z,4.40
2023-05-18T03:03:28.217Z,3.15
2023-05-18T03:05:55.701Z,3.90
2023-05-18T03:08:22.912Z,5.75
2023-05-18T03:10:50.905Z,3.28
2023-05-18T03:13:18.200Z,3.40
2023-05-18T03:15:49.336Z,3.80
2023-05-18T03:18:19.009Z,2.62
2023-05-18T03:20:46.341Z,3.45
2023-05-18T03:23:13.503Z,3.72
2023-05-18T03:25:40.949Z,4.35
2023-05-18T03:28:08.016Z,3.70
2023-05-18T03:30:35.720Z,4.75
2023-05-18T03:33:04.613Z,6.10
2023-05-18T03:35:32.822Z,3.35
2023-05-18T03:38:00.138Z,6.60
2023-05-18T03:40:27.589Z,3.15
2023-05-18T03:42:54.785Z,4.55
2023-05-18T03:45:21.868Z,5.80
2023-05-18T03:47:49.346Z,4.45
2023-05-18T03:50:16.688Z,4.82
2023-05-18T03:52:44.626Z,3.55
2023-05-18T03:55:12.323Z,3.53
2023-05-18T03:57:39.731Z,4.57
2023-05-18T04:00:12.112Z,6.15
2023-05-18T04:02:44.235Z,6.05
2023-05-18T04:05:12.578Z,6.47
2023-05-18T04:07:44.180Z,5.12
2023-05-18T04:10:12.878Z,6.68
2023-05-18T04:12:42.323Z,9.55
2023-05-18T04:15:10.535Z,4.87
2023-05-18T04:17:39.732Z,5.30
2023-05-18T04:20:13.323Z,6.12
2023-05-18T04:22:46.755Z,4.68
2023-05-18T04:25:15.295Z,8.50
2023-05-18T04:27:45.464Z,5.97
2023-05-18T04:30:13.841Z,6.28
2023-05-18T04:32:43.249Z,7.55
2023-05-18T04:35:11.880Z,6.85
2023-05-18T04:37:43.109Z,8.85
2023-05-18T04:40:17.059Z,8.55
2023-05-18T04:42:47.712Z,8.23
2023-05-18T04:45:17.900Z,5.20
2023-05-18T04:47:47.217Z,6.62
2023-05-18T04:50:19.253Z,8.23
2023-05-18T04:52:49.088Z,5.70
2023-05-18T04:55:23.098Z,8.20
2023-05-18T04:57:50.942Z,6.85
2023-05-18T05:00:18.637Z,6.20
2023-05-18T05:02:45.999Z,5.87
2023-05-18T05:05:13.744Z,6.65
2023-05-18T05:07:41.065Z,7.12
2023-05-18T05:10:09.775Z,6.57
2023-05-18T05:12:38.426Z,7.22
2023-05-18T05:15:06.506Z,8.32
2023-05-18T05:17:34.057Z,9.45
2023-05-18T05:20:01.536Z,9.85
2023-05-18T05:22:28.780Z,10.80
2023-05-18T05:24:56.289Z,9.45
2023-05-18T05:27:26.174Z,7.35
2023-05-18T05:29:53.520Z,7.85
2023-05-18T05:32:20.715Z,6.70
2023-05-18T05:34:50.421Z,10.20
2023-05-18T05:37:18.767Z,11.32
2023-05-18T05:39:46.427Z,5.62
2023-05-18T05:42:16.297Z,9.68
2023-05-18T05:44:43.446Z,6.70
2023-05-18T05:47:11.153Z,6.78
2023-05-18T05:49:38.683Z,10.50
2023-05-18T05:52:07.071Z,6.57
2023-05-18T05:54:34.364Z,7.75
2023-05-18T05:57:02.025Z,6.95
2023-05-18T05:59:29.291Z,10.88
2023-05-18T06:01:56.668Z,5.95
2023-05-18T06:04:24.527Z,8.60
2023-05-18T06:06:53.150Z,9.43
2023-05-18T06:09:21.123Z,4.87
2023-05-18T06:11:49.172Z,7.78
2023-05-18T06:14:16.676Z,8.32
2023-05-18T06:16:44.355Z,6.32
2023-05-18T06:19:11.878Z,6.15
2023-05-18T06:21:39.256Z,6.10
2023-05-18T06:24:07.286Z,6.40
2023-05-18T06:26:34.919Z,4.62
2023-05-18T06:29:03.027Z,5.15
2023-05-18T06:31:30.670Z,5.43
2023-05-18T06:33:58.555Z,8.30
2023-05-18T06:36:25.791Z,5.30
2023-05-18T06:38:52.905Z,6.70
2023-05-18T06:41:20.683Z,5.15
2023-05-18T06:43:47.961Z,6.85
2023-05-18T06:46:23.361Z,7.07
2023-05-18T06:48:51.437Z,4.85
2023-05-18T06:51:19.460Z,4.20
2023-05-18T06:53:47.031Z,7.55
2023-05-18T06:56:14.701Z,5.60
2023-05-18T06:58:42.956Z,5.50
2023-05-18T07:01:11.101Z,5.85
2023-05-18T07:03:38.900Z,6.68
2023-05-18T07:06:06.506Z,4.25
2023-05-18T07:08:33.882Z,5.55
2023-05-18T07:11:02.584Z,5.12
2023-05-18T07:13:30.365Z,3.72
2023-05-18T07:15:58.124Z,5.00
2023-05-18T07:18:26.556Z,4.90
2023-05-18T07:20:53.821Z,4.78
2023-05-18T07:23:21.001Z,12.02
2023-05-18T07:25:49.146Z,6.97
2023-05-18T07:28:16.405Z,9.90
2023-05-18T07:30:43.445Z,4.75
2023-05-18T07:33:10.853Z,5.05
2023-05-18T07:35:37.977Z,5.85
2023-05-18T07:38:05.086Z,5.43
2023-05-18T07:40:32.459Z,6.00
2023-05-18T07:42:59.586Z,5.15
2023-05-18T07:45:26.776Z,5.32
2023-05-18T07:47:54.405Z,5.55
2023-05-18T07:50:21.765Z,5.68
2023-05-18T07:52:48.931Z,7.35
2023-05-18T07:55:16.547Z,4.85
2023-05-18T07:57:43.620Z,6.50
2023-05-18T08:00:11.325Z,3.83
2023-05-18T08:02:40.079Z,4.75
2023-05-18T08:05:08.524Z,4.22
2023-05-18T08:07:36.192Z,4.45
2023-05-18T08:10:03.818Z,5.18
2023-05-18T08:12:31.243Z,4.45
2023-05-18T08:14:58.418Z,5.43
2023-05-18T08:17:26.163Z,1.65
2023-05-18T08:19:54.219Z,2.67
2023-05-18T08:22:21.745Z,2.05
2023-05-18T08:24:48.923Z,1.60
2023-05-18T08:27:16.430Z,1.10
2023-05-18T08:29:43.503Z,0.65
2023-05-18T08:32:10.753Z,1.00
2023-05-18T08:34:38.183Z,1.42
2023-05-18T08:37:05.328Z,2.17
2023-05-18T08:39:32.541Z,2.30
2023-05-18T08:42:12.343Z,1.52
2023-05-18T08:44:46.082Z,3.30
2023-05-18T08:49:42.797Z,3.05
2023-05-18T08:52:15.539Z,1.77
2023-05-18T08:54:43.294Z,0.77
2023-05-18T08:57:11.400Z,1.45
2023-05-18T08:59:43.469Z,1.60
2023-05-18T09:02:11.507Z,1.48
2023-05-18T09:04:39.065Z,1.30
2023-05-18T09:07:07.290Z,0.85
2023-05-18T09:09:35.770Z,2.25
2023-05-18T09:12:03.539Z,0.90
2023-05-18T09:14:32.526Z,0.60
2023-05-18T09:17:00.787Z,1.12
2023-05-18T09:19:28.671Z,0.68
2023-05-18T09:21:55.749Z,1.60
2023-05-18T09:24:24.864Z,1.35
2023-05-18T09:26:52.679Z,1.73
2023-05-18T09:29:22.138Z,0.52
2023-05-18T09:31:50.289Z,0.32
2023-05-18T09:34:19.332Z,1.35
2023-05-18T09:36:52.934Z,1.00
2023-05-18T09:41:57.816Z,4.72
2023-05-18T09:44:32.744Z,0.98
2023-05-18T09:46:59.913Z,2.28
2023-05-18T09:49:30.308Z,2.85
2023-05-18T09:51:59.974Z,0.43
2023-05-18T09:54:27.505Z,0.95
2023-05-18T09:57:09.644Z,2.75
2023-05-18T09:59:38.600Z,0.60
2023-05-18T10:02:07.686Z,2.25
2023-05-18T10:04:39.422Z,0.47
2023-05-18T10:07:11.748Z,0.73
2023-05-18T10:09:43.585Z,1.05
2023-05-18T10:12:21.196Z,0.98
2023-05-18T10:14:49.299Z,0.77
2023-05-18T10:17:17.677Z,4.28
2023-05-18T10:19:46.694Z,0.70
2023-05-18T10:22:17.590Z,1.15
2023-05-18T10:24:50.142Z,2.15
2023-05-18T10:27:21.546Z,1.10
2023-05-18T10:29:52.343Z,1.15
2023-05-18T10:32:21.736Z,3.08
2023-05-18T10:34:52.746Z,1.62
2023-05-18T10:37:23.775Z,1.20
2023-05-18T10:39:52.194Z,0.93
2023-05-18T10:42:20.720Z,2.25
2023-05-18T10:44:48.159Z,1.25
2023-05-18T10:47:15.674Z,1.95
2023-05-18T10:49:43.969Z,1.85
2023-05-18T10:52:12.220Z,2.30
2023-05-18T10:54:40.900Z,2.55
2023-05-18T10:57:13.175Z,1.50
2023-05-18T10:59:43.163Z,5.95
2023-05-18T11:02:13.528Z,4.15
2023-05-18T11:04:41.065Z,0.50
2023-05-18T11:07:12.615Z,3.37
2023-05-18T11:09:44.294Z,14.15
2023-05-18T11:12:14.020Z,2.45
2023-05-18T11:14:52.616Z,1.67
2023-05-18T11:17:26.136Z,2.08
2023-05-18T11:20:09.024Z,7.30
2023-05-18T11:22:52.744Z,1.95
2023-05-18T11:25:25.969Z,3.37
2023-05-18T11:27:55.853Z,1.00
2023-05-18T11:30:44.659Z,2.55
2023-05-18T11:33:14.772Z,2.80
2023-05-18T11:36:04.889Z,1.90
2023-05-18T11:38:54.777Z,3.87
2023-05-18T11:41:46.950Z,6.07
2023-05-18T11:44:20.257Z,1.27
2023-05-18T11:47:00.304Z,3.58
2023-05-18T11:49:29.764Z,1.45
2023-05-18T11:52:26.604Z,1.45
2023-05-18T11:54:56.457Z,4.60
2023-05-18T11:57:36.149Z,3.20
2023-05-18T12:00:17.131Z,3.55
2023-05-18T12:02:48.817Z,3.28
2023-05-18T12:05:16.375Z,3.40
2023-05-18T12:07:44.963Z,2.83
2023-05-18T12:10:17.716Z,6.75
2023-05-18T12:12:49.376Z,3.78
2023-05-18T12:15:17.581Z,6.22
2023-05-18T12:17:49.800Z,7.45
2023-05-18T12:20:19.092Z,9.70
2023-05-18T12:22:53.167Z,11.23
2023-05-18T12:25:25.755Z,4.87
2023-05-18T12:27:54.237Z,2.35
2023-05-18T12:30:34.526Z,1.00
2023-05-18T12:33:06.949Z,1.67
2023-05-18T12:35:34.610Z,1.42
2023-05-18T12:38:02.502Z,4.60
2023-05-18T12:40:48.884Z,5.43
2023-05-18T12:43:16.439Z,3.45
2023-05-18T12:45:45.114Z,2.62
2023-05-18T12:48:13.402Z,3.72
2023-05-18T12:50:48.763Z,2.85
2023-05-18T12:53:17.144Z,2.65
2023-05-18T12:55:45.351Z,3.78
2023-05-18T12:58:15.845Z,1.50
2023-05-18T13:00:44.947Z,1.60
2023-05-18T13:03:17.846Z,0.95
2023-05-18T13:08:29.222Z,1.48
2023-05-18T13:11:12.591Z,1.12
2023-05-18T13:14:00.580Z,1.40
2023-05-18T13:16:30.235Z,1.30
2023-05-18T13:19:07.444Z,0.95
2023-05-18T13:21:35.842Z,4.25
2023-05-18T13:24:06.209Z,1.10
2023-05-18T13:26:33.323Z,1.30
2023-05-18T13:29:00.609Z,0.70
2023-05-18T13:31:29.675Z,3.67
2023-05-18T13:33:57.372Z,0.98
2023-05-18T13:36:24.749Z,2.47
2023-05-18T13:38:52.410Z,5.05
2023-05-18T13:41:19.705Z,1.70
2023-05-18T13:43:46.773Z,1.40
2023-05-18T13:46:14.511Z,1.27
2023-05-18T13:48:41.617Z,1.37
2023-05-18T13:51:08.732Z,0.62
2023-05-18T13:53:38.001Z,1.48
2023-05-18T13:56:06.073Z,2.20
2023-05-18T13:58:33.064Z,2.17
2023-05-18T14:01:03.932Z,1.42
2023-05-18T14:03:33.899Z,3.22
2023-05-18T14:06:01.213Z,2.42
2023-05-18T14:08:28.204Z,3.97
2023-05-18T14:10:55.575Z,2.67
2023-05-18T14:13:22.593Z,2.90
2023-05-18T14:15:49.602Z,4.28
2023-05-18T14:18:17.192Z,8.45
2023-05-18T14:20:44.858Z,2.08
2023-05-18T14:23:11.842Z,11.20
2023-05-18T14:25:39.203Z,3.08
2023-05-18T14:28:06.241Z,3.42
2023-05-18T14:30:33.420Z,3.45
2023-05-18T14:33:01.458Z,8.93
2023-05-18T14:35:28.631Z,2.72
2023-05-18T14:37:55.696Z,4.70
2023-05-18T14:40:23.133Z,3.83
2023-05-18T14:42:51.614Z,4.00
2023-05-18T14:45:20.805Z,4.78
2023-05-18T14:47:48.313Z,4.12
2023-05-18T14:50:15.366Z,4.87
2023-05-18T14:52:42.409Z,4.28
2023-05-18T14:55:09.925Z,10.48
2023-05-18T14:57:36.935Z,5.03
2023-05-18T15:00:04.592Z,4.05
2023-05-18T15:02:32.366Z,2.35
2023-05-18T15:04:59.800Z,4.03
2023-05-18T15:07:26.949Z,3.33
2023-05-18T15:09:55.379Z,2.62
2023-05-18T15:12:23.381Z,2.78
2023-05-18T15:14:50.721Z,7.75
2023-05-18T15:17:18.162Z,7.22
2023-05-18T15:19:45.365Z,2.55
2023-05-18T15:22:12.565Z,4.45
2023-05-18T15:24:39.930Z,3.28
2023-05-18T15:27:07.208Z,3.03
2023-05-18T15:29:34.649Z,2.37
2023-05-18T15:32:02.146Z,4.62
2023-05-18T15:34:29.879Z,4.25
2023-05-18T15:36:56.996Z,5.45
2023-05-18T15:39:24.404Z,3.33
2023-05-18T15:41:51.466Z,5.10
2023-05-18T15:44:18.503Z,6.43
2023-05-18T15:46:45.916Z,7.10
2023-05-18T15:49:12.959Z,3.62
2023-05-18T15:51:40.014Z,5.45
2023-05-18T15:54:07.393Z,2.92
2023-05-18T15:56:34.407Z,9.32
2023-05-18T15:59:01.510Z,3.95
2023-05-18T16:01:28.932Z,6.65
2023-05-18T16:03:56.380Z,4.57
2023-05-18T16:06:23.689Z,6.05
2023-05-18T16:08:51.152Z,9.80
2023-05-18T16:11:18.479Z,6.28
2023-05-18T16:13:45.716Z,2.62
2023-05-18T16:16:14.250Z,3.78
2023-05-18T16:18:41.943Z,6.87
2023-05-18T16:21:09.427Z,7.15
2023-05-18T16:23:36.552Z,2.87
2023-05-18T16:26:05.651Z,3.72
2023-05-18T16:28:32.860Z,3.75
2023-05-18T16:31:00.164Z,7.10
2023-05-18T16:33:28.151Z,7.15
2023-05-18T16:35:55.992Z,2.83
2023-05-18T16:38:23.043Z,5.70
2023-05-18T16:40:50.423Z,2.12
2023-05-18T16:43:17.521Z,2.28
2023-05-18T16:45:44.960Z,2.33
2023-05-18T16:48:12.333Z,4.10
2023-05-18T16:50:39.457Z,3.45
2023-05-18T16:53:06.470Z,8.23
2023-05-18T16:55:33.774Z,2.05
2023-05-18T16:58:02.213Z,3.62
2023-05-18T17:00:29.666Z,3.92
2023-05-18T17:02:58.130Z,6.37
2023-05-18T17:05:25.988Z,2.90
2023-05-18T17:07:53.169Z,2.83
2023-05-18T17:10:20.821Z,5.93
2023-05-18T17:12:48.063Z,4.32
2023-05-18T17:15:16.339Z,3.75
2023-05-18T17:17:44.329Z,2.75
2023-05-18T17:20:11.706Z,3.92
2023-05-18T17:22:38.779Z,6.57
2023-05-18T17:25:06.966Z,14.25
2023-05-18T17:27:34.402Z,4.80
2023-05-18T17:30:01.454Z,3.65
2023-05-18T17:32:28.876Z,2.35
2023-05-18T17:34:55.971Z,4.62
2023-05-18T17:37:23.122Z,2.53
2023-05-18T17:39:50.465Z,3.00
2023-05-18T17:42:18.147Z,3.00
2023-05-18T17:44:47.328Z,3.83
2023-05-18T17:47:15.186Z,4.65
2023-05-18T17:49:42.347Z,10.23
2023-05-18T17:52:09.506Z,6.43
2023-05-18T17:54:36.829Z,10.00
2023-05-18T17:57:04.490Z,9.75
2023-05-18T17:59:31.524Z,5.78
2023-05-18T18:01:58.820Z,5.60
2023-05-18T18:04:26.185Z,4.75
2023-05-18T18:06:54.520Z,6.25
2023-05-18T18:09:22.291Z,5.97
2023-05-18T18:11:49.706Z,6.30
2023-05-18T18:14:17.417Z,5.37
2023-05-18T18:16:44.757Z,8.45
2023-05-18T18:19:13.382Z,7.47
2023-05-18T18:21:40.809Z,6.10
2023-05-18T18:24:07.934Z,5.45
2023-05-18T18:26:40.504Z,3.37
2023-05-18T18:29:07.809Z,5.85
2023-05-18T18:31:35.650Z,3.95
2023-05-18T18:34:02.856Z,3.30
2023-05-18T18:36:29.999Z,2.92
2023-05-18T18:38:57.305Z,4.07
2023-05-18T18:41:24.482Z,5.40
2023-05-18T18:43:53.983Z,4.37
2023-05-18T18:46:21.593Z,4.97
2023-05-18T18:48:48.803Z,8.27
2023-05-18T18:51:15.987Z,4.50
2023-05-18T18:53:43.368Z,6.12
2023-05-18T18:56:10.593Z,8.18
2023-05-18T18:58:37.634Z,4.40
2023-05-18T19:01:04.965Z,5.00
2023-05-18T19:03:33.035Z,8.02
2023-05-18T19:06:00.289Z,6.82
2023-05-18T19:08:27.707Z,5.22
2023-05-18T19:10:55.001Z,5.75
2023-05-18T19:13:22.195Z,8.20
2023-05-18T19:15:50.271Z,6.95
2023-05-18T19:18:17.713Z,4.93
2023-05-18T19:20:44.790Z,5.43
2023-05-18T19:23:12.214Z,4.93
2023-05-18T19:25:39.495Z,7.43
2023-05-18T19:28:06.800Z,6.43
2023-05-18T19:30:34.192Z,8.55
2023-05-18T19:33:01.389Z,6.07
2023-05-18T19:35:29.016Z,8.20
2023-05-18T19:37:57.196Z,10.85
2023-05-18T19:40:27.188Z,8.13
2023-05-18T19:42:54.378Z,10.38
2023-05-18T19:45:22.050Z,9.68
2023-05-18T19:47:49.107Z,10.13
2023-05-18T19:50:16.229Z,9.30
2023-05-18T19:52:43.646Z,7.35
2023-05-18T19:55:10.843Z,9.60
2023-05-18T19:57:38.164Z,14.32
2023-05-18T20:00:10.989Z,13.07
2023-05-18T20:02:39.435Z,16.75
2023-05-18T20:05:08.096Z,15.43
2023-05-18T20:07:35.176Z,14.85
2023-05-18T20:10:02.306Z,14.00
2023-05-18T20:12:29.738Z,12.40
2023-05-18T20:14:57.022Z,9.52
2023-05-18T20:17:24.856Z,7.22
2023-05-18T20:19:52.194Z,8.55
2023-05-18T20:22:19.988Z,9.48
2023-05-18T20:24:47.079Z,7.82
2023-05-18T20:27:15.520Z,8.55
2023-05-18T20:29:42.938Z,6.82
2023-05-18T20:32:10.013Z,5.45
2023-05-18T20:34:37.464Z,5.95
2023-05-18T20:37:05.401Z,6.43
2023-05-18T20:39:32.938Z,3.72
2023-05-18T20:42:03.284Z,6.30
2023-05-18T20:44:31.413Z,3.47
2023-05-18T20:47:01.054Z,4.95
2023-05-18T20:49:28.396Z,4.57
2023-05-18T20:51:55.470Z,4.28
2023-05-18T20:54:22.650Z,3.62
2023-05-18T20:56:51.294Z,5.40
2023-05-18T20:59:19.165Z,6.62
2023-05-18T21:01:46.251Z,4.82
2023-05-18T21:04:14.170Z,5.40
2023-05-18T21:06:44.083Z,8.68
2023-05-18T21:09:11.938Z,10.25
2023-05-18T21:11:40.021Z,9.18
2023-05-18T21:14:07.161Z,8.60
2023-05-18T21:16:34.450Z,7.97
2023-05-18T21:19:01.963Z,10.45
2023-05-18T21:21:29.187Z,7.25
2023-05-18T21:23:56.357Z,4.97
2023-05-18T21:26:23.762Z,9.15
2023-05-18T21:28:50.787Z,4.18
2023-05-18T21:31:17.889Z,3.80
2023-05-18T21:33:48.239Z,3.75
2023-05-18T21:36:15.819Z,3.42
2023-05-18T21:38:43.030Z,5.53
2023-05-18T21:41:10.417Z,7.10
2023-05-18T21:43:37.480Z,18.52
2023-05-18T21:46:05.909Z,13.95
2023-05-18T21:48:34.447Z,16.80
2023-05-18T21:51:01.837Z,12.18
2023-05-18T21:53:28.880Z,17.08
2023-05-18T21:55:56.265Z,10.40
2023-05-18T21:58:24.572Z,14.40
2023-05-18T22:00:51.749Z,8.27
2023-05-18T22:03:19.194Z,10.50
2023-05-18T22:05:46.251Z,5.70
2023-05-18T22:08:13.316Z,5.90
2023-05-18T22:10:41.588Z,5.82
2023-05-18T22:13:09.190Z,5.72
2023-05-18T22:15:37.279Z,6.25
2023-05-18T22:18:04.834Z,5.05
2023-05-18T22:20:32.992Z,5.18
2023-05-18T22:23:00.334Z,6.78
2023-05-18T22:25:27.818Z,6.82
2023-05-18T22:27:55.002Z,12.40
2023-05-18T22:30:23.913Z,7.20
2023-05-18T22:32:51.887Z,7.93
2023-05-18T22:35:19.063Z,10.70
2023-05-18T22:37:46.461Z,8.55
2023-05-18T22:40:13.904Z,8.90
2023-05-18T22:42:41.009Z,8.85
2023-05-18T22:45:09.791Z,7.62
2023-05-18T22:47:39.032Z,8.30
2023-05-18T22:50:07.433Z,10.68
2023-05-18T22:52:34.906Z,10.57
2023-05-18T22:55:02.584Z,10.23
2023-05-18T22:57:29.586Z,9.77
2023-05-18T22:59:56.884Z,14.38
2023-05-18T23:02:24.206Z,12.93
2023-05-18T23:04:51.265Z,10.50
2023-05-18T23:07:18.435Z,10.98
2023-05-18T23:09:45.748Z,10.30
2023-05-18T23:12:12.901Z,21.02
2023-05-18T23:14:39.973Z,9.50
2023-05-18T23:17:07.452Z,8.75
2023-05-18T23:19:36.033Z,12.25
2023-05-18T23:22:03.842Z,10.48
2023-05-18T23:24:31.283Z,12.55
2023-05-18T23:26:58.342Z,7.90
2023-05-18T23:29:25.651Z,8.50
2023-05-18T23:31:53.045Z,8.57
2023-05-18T23:34:20.903Z,8.73
2023-05-18T23:36:53.688Z,9.45
2023-05-18T23:39:22.313Z,7.80
2023-05-18T23:41:53.803Z,6.20
2023-05-18T23:44:21.460Z,8.55
2023-05-18T23:46:48.818Z,6.28
2023-05-18T23:49:16.118Z,7.28
2023-05-18T23:51:44.297Z,9.35
2023-05-18T23:54:13.075Z,10.38
2023-05-18T23:56:40.572Z,5.87
2023-05-18T23:59:09.741Z,8.25
